Agios Georgios I — SX9857 — position and weather

sailwx.info

Track history (hours):
 
Tides and Currents Weather Stations Pressure Air Temp Water Temp Dewpoint Dewpoint Depression Visibility Wind Speed Wind Dir Waves Ship Positions

Agios Georgios I

Last reported at 2017-Feb-22 20:03 UTC. Time now 2017-Feb-23 02:40 UTC.
Position N 37°31' E 024°45'.

Length 59 m; draft 5 m.

Type: Ship (hazmat cat B). MMSI: 239912000.

Date/timePositionNaut miles runAvg speedWind from/ knotsBaromVisibWave heightAir tempDewpointWater temp
2017-Feb-22 20:03N 37°31' E 024°45'45 8.2
2017-Feb-22 14:33N 37°37' E 023°48'8 7.8
2017-Feb-22 13:33N 37°43' E 023°41'8 8.2
2017-Feb-22 12:33N 37°50' E 023°36'8 7.5
2017-Feb-22 11:33N 37°57' E 023°35'0 0.0
2017-Feb-22 10:33N 37°57' E 023°35'0 0.0
2017-Feb-22 09:33N 37°57' E 023°35'0 0.0
2017-Feb-22 08:33N 37°57' E 023°35'0 0.0
2017-Feb-22 07:33N 37°57' E 023°35'6 6.5
2017-Feb-22 06:33N 37°51' E 023°32'8 8.1
2017-Feb-22 05:33N 37°52' E 023°22'9 8.7
2017-Feb-22 04:33N 37°54' E 023°11'4 4.4
2017-Feb-22 03:34N 37°55' E 023°06'0 0.0
2017-Feb-22 02:33N 37°55' E 023°06'0 0.0
2017-Feb-22 01:33N 37°55' E 023°06'0 0.0
2017-Feb-22 00:33N 37°55' E 023°06'0 0.0
2017-Feb-21 23:33N 37°55' E 023°06'0 0.0
2017-Feb-21 22:33N 37°55' E 023°06'0 0.0
2017-Feb-21 21:33N 37°55' E 023°06'0 0.0
2017-Feb-21 20:32N 37°55' E 023°06'0 0.0
2017-Feb-21 19:33N 37°55' E 023°06'0 0.0
2017-Feb-21 18:20N 37°55' E 023°06'0 0.0
2017-Feb-21 17:29N 37°55' E 023°06'1 0.4
2017-Feb-21 16:09N 37°55' E 023°05'0 0.0
2017-Feb-21 15:31N 37°55' E 023°05'0 0.0
2017-Feb-21 14:34N 37°55' E 023°05'0 0.0
2017-Feb-21 10:33N 37°55' E 023°05'0 0.0
2017-Feb-21 06:31N 37°55' E 023°05'2 2.4
2017-Feb-21 05:33N 37°54' E 023°08'6 6.0
2017-Feb-21 04:33N 37°53' E 023°15'9 8.7
2017-Feb-21 03:33N 37°51' E 023°26'9 8.9
2017-Feb-21 02:33N 37°50' E 023°37'8 8.1
2017-Feb-21 01:33N 37°43' E 023°44'68 3.6
2017-Feb-20 06:33N 37°29' E 025°07'8 8.4
2017-Feb-20 05:33N 37°32' E 025°17'  
Track history (hours):
 
Tides and Currents Weather Stations Pressure Air Temp Water Temp Dewpoint Dewpoint Depression Visibility Wind Speed Wind Dir Waves Ship Positions

Agios Georgios I

Last reported at 2017-Feb-22 20:03 UTC. Time now 2017-Feb-23 02:40 UTC.
Position N 37°31' E 024°45'.

Length 59 m; draft 5 m.

Type: Ship (hazmat cat B). MMSI: 239912000.

Date/timePositionNaut miles runAvg speedWind from/ knotsBaromVisibWave heightAir tempDewpointWater temp
2017-Feb-22 20:03N 37°31' E 024°45'45 8.2
2017-Feb-22 14:33N 37°37' E 023°48'8 7.8
2017-Feb-22 13:33N 37°43' E 023°41'8 8.2
2017-Feb-22 12:33N 37°50' E 023°36'8 7.5
2017-Feb-22 11:33N 37°57' E 023°35'0 0.0
2017-Feb-22 10:33N 37°57' E 023°35'0 0.0
2017-Feb-22 09:33N 37°57' E 023°35'0 0.0
2017-Feb-22 08:33N 37°57' E 023°35'0 0.0
2017-Feb-22 07:33N 37°57' E 023°35'6 6.5
2017-Feb-22 06:33N 37°51' E 023°32'8 8.1
2017-Feb-22 05:33N 37°52' E 023°22'9 8.7
2017-Feb-22 04:33N 37°54' E 023°11'4 4.4
2017-Feb-22 03:34N 37°55' E 023°06'0 0.0
2017-Feb-22 02:33N 37°55' E 023°06'0 0.0
2017-Feb-22 01:33N 37°55' E 023°06'0 0.0
2017-Feb-22 00:33N 37°55' E 023°06'0 0.0
2017-Feb-21 23:33N 37°55' E 023°06'0 0.0
2017-Feb-21 22:33N 37°55' E 023°06'0 0.0
2017-Feb-21 21:33N 37°55' E 023°06'0 0.0
2017-Feb-21 20:32N 37°55' E 023°06'0 0.0
2017-Feb-21 19:33N 37°55' E 023°06'0 0.0
2017-Feb-21 18:20N 37°55' E 023°06'0 0.0
2017-Feb-21 17:29N 37°55' E 023°06'1 0.4
2017-Feb-21 16:09N 37°55' E 023°05'0 0.0
2017-Feb-21 15:31N 37°55' E 023°05'0 0.0
2017-Feb-21 14:34N 37°55' E 023°05'0 0.0
2017-Feb-21 10:33N 37°55' E 023°05'0 0.0
2017-Feb-21 06:31N 37°55' E 023°05'2 2.4
2017-Feb-21 05:33N 37°54' E 023°08'6 6.0
2017-Feb-21 04:33N 37°53' E 023°15'9 8.7
2017-Feb-21 03:33N 37°51' E 023°26'9 8.9
2017-Feb-21 02:33N 37°50' E 023°37'8 8.1
2017-Feb-21 01:33N 37°43' E 023°44'68 3.6
2017-Feb-20 06:33N 37°29' E 025°07'8 8.4
2017-Feb-20 05:33N 37°32' E 025°17'  

Dump ship's entire track history